Time;durP1;ratioP1;P1;durP2;ratioP2;P2;SDS_P1;SDS_P2;PMS_P1;PMS_P2;Temp;Humidity;BMP_temperature;BMP_pressure;BME280_temperature;BME280_humidity;BME280_pressure;Samples;Min_cycle;Max_cycle;Signal;HPM_P1;HPM_P2
2023/01/06 00:02:03;;;;;;;3.95;2.63;;;;;;;;;;6018769;23;20030;-90
2023/01/06 00:05:11;;;;;;;4.60;2.72;;;;;;;;;;6067490;23;20019;-90
2023/01/06 00:08:09;;;;;;;;;;;;;;;;;;;;;
2023/01/06 00:11:21;;;;;;;4.53;2.70;;;;;;;;;;6001754;23;20010;-91
2023/01/06 00:14:02;;;;;;;4.63;3.00;;;;;;;;;;6043490;23;20087;-90
2023/01/06 00:17:05;;;;;;;;;;;;;;;;;;;;;
2023/01/06 00:19:54;;;;;;;6.78;3.75;;;;;;;;;;6049241;23;20011;-90
2023/01/06 00:22:44;;;;;;;5.25;3.35;;;;;;;;;;6043542;23;20015;-90
2023/01/06 00:25:26;;;;;;;5.60;3.60;;;;;;;;;;6044149;23;20109;-90
2023/01/06 00:28:17;;;;;;;4.82;2.40;;;;;;;;;;6043270;23;20019;-91
2023/01/06 00:30:59;;;;;;;5.93;3.25;;;;;;;;;;6001453;23;20018;-89
2023/01/06 00:34:08;;;;;;;5.32;2.72;;;;;;;;;;5998083;23;20046;-90
2023/01/06 00:37:04;;;;;;;5.57;2.45;;;;;;;;;;6039108;23;20019;-90
2023/01/06 00:39:58;;;;;;;5.45;3.17;;;;;;;;;;6041574;23;20390;-89
2023/01/06 00:43:02;;;;;;;4.30;2.38;;;;;;;;;;6043760;23;20105;-90
2023/01/06 00:46:14;;;;;;;4.53;1.80;;;;;;;;;;6040874;23;20741;-90
2023/01/06 00:48:51;;;;;;;4.10;2.60;;;;;;;;;;6017740;23;20043;-90
2023/01/06 00:51:28;;;;;;;6.38;2.92;;;;;;;;;;6020681;23;20019;-90
2023/01/06 00:54:35;;;;;;;5.95;2.35;;;;;;;;;;5959697;24;20020;-90
2023/01/06 00:57:41;;;;;;;4.70;2.50;;;;;;;;;;6043795;23;20030;-90
2023/01/06 01:00:23;;;;;;;4.72;2.72;;;;;;;;;;6020744;23;20400;-90
2023/01/06 01:03:29;;;;;;;3.65;2.20;;;;;;;;;;6019874;23;20015;-90
2023/01/06 01:06:19;;;;;;;3.40;2.08;;;;;;;;;;6035513;23;20011;-91
2023/01/06 01:09:08;;;;;;;4.40;2.72;;;;;;;;;;6020141;23;20006;-91
2023/01/06 01:12:14;;;;;;;4.85;2.55;;;;;;;;;;6047946;23;20347;-90
2023/01/06 01:14:55;;;;;;;3.05;1.63;;;;;;;;;;5996508;23;20023;-90
2023/01/06 01:17:31;;;;;;;5.15;2.38;;;;;;;;;;5976949;23;20014;-91
2023/01/06 01:20:06;;;;;;;2.75;1.65;;;;;;;;;;6019241;23;20058;-89
2023/01/06 01:22:56;;;;;;;3.30;2.10;;;;;;;;;;6020687;23;20011;-90
2023/01/06 01:25:35;;;;;;;5.30;2.40;;;;;;;;;;6020296;23;20011;-90
2023/01/06 01:28:22;;;;;;;2.92;1.70;;;;;;;;;;6001472;23;20384;-90
2023/01/06 01:31:14;;;;;;;4.40;2.15;;;;;;;;;;6042696;23;20344;-90
2023/01/06 01:34:09;;;;;;;4.63;2.10;;;;;;;;;;6018983;23;20371;-89
2023/01/06 01:36:47;;;;;;;4.47;2.03;;;;;;;;;;6019602;23;20270;-91
2023/01/06 01:39:52;;;;;;;3.95;2.20;;;;;;;;;;5996683;23;20053;-91
2023/01/06 01:42:28;;;;;;;3.83;2.42;;;;;;;;;;6033900;23;20021;-90
2023/01/06 01:45:23;;;;;;;3.70;2.03;;;;;;;;;;5997430;23;20085;-90
2023/01/06 01:48:11;;;;;;;5.50;2.22;;;;;;;;;;6045160;23;19999;-90
2023/01/06 01:51:00;;;;;;;4.65;2.35;;;;;;;;;;6023169;23;20352;-89
2023/01/06 01:53:44;;;;;;;3.22;1.95;;;;;;;;;;6024315;23;20003;-92
2023/01/06 01:56:27;;;;;;;2.80;1.42;;;;;;;;;;6017034;23;20340;-91
2023/01/06 01:59:17;;;;;;;3.45;1.90;;;;;;;;;;6039063;23;20007;-93
2023/01/06 02:01:52;;;;;;;2.97;1.73;;;;;;;;;;6038240;23;20003;-89
2023/01/06 02:04:23;;;;;;;3.80;2.00;;;;;;;;;;6015050;23;20003;-90
2023/01/06 02:06:56;;;;;;;;;;;;;;;;;;6015286;23;20373;-90
2023/01/06 02:09:59;;;;;;;3.63;2.17;;;;;;;;;;6018855;23;20313;-90
2023/01/06 02:12:32;;;;;;;4.75;2.30;;;;;;;;;;5991390;23;20026;-90
2023/01/06 02:15:34;;;;;;;3.35;1.40;;;;;;;;;;5996603;23;20010;-90
2023/01/06 02:18:35;;;;;;;3.40;1.50;;;;;;;;;;6017774;23;20007;-91
2023/01/06 02:21:24;;;;;;;2.60;1.40;;;;;;;;;;6014547;23;20007;-90
2023/01/06 02:24:44;;;;;;;3.08;1.38;;;;;;;;;;6017274;23;20007;-90
2023/01/06 02:27:30;;;;;;;3.22;1.85;;;;;;;;;;5996954;23;20344;-90
2023/01/06 02:30:10;;;;;;;;;;;;;;;;;;6038905;23;20014;-90
2023/01/06 02:33:04;;;;;;;2.97;1.50;;;;;;;;;;6038292;23;19912;-90
2023/01/06 02:35:51;;;;;;;3.15;1.73;;;;;;;;;;6037994;23;20011;-89
2023/01/06 02:38:44;;;;;;;3.38;1.73;;;;;;;;;;6034526;23;20371;-90
2023/01/06 02:41:43;;;;;;;2.92;1.50;;;;;;;;;;6038393;23;20351;-89
2023/01/06 02:44:59;;;;;;;4.50;1.92;;;;;;;;;;5991388;23;20432;-90
2023/01/06 02:47:46;;;;;;;3.08;1.40;;;;;;;;;;6038321;23;20313;-88
2023/01/06 02:51:02;;;;;;;2.33;1.30;;;;;;;;;;6038357;23;20011;-90
2023/01/06 02:54:00;;;;;;;3.10;1.45;;;;;;;;;;5951534;24;20011;-89
2023/01/06 02:56:43;;;;;;;2.60;1.23;;;;;;;;;;5907053;24;20394;-89
2023/01/06 02:59:37;;;;;;;3.55;1.60;;;;;;;;;;5909905;24;20004;-90
2023/01/06 03:02:11;;;;;;;4.22;1.80;;;;;;;;;;5990210;23;20372;-90
2023/01/06 03:04:52;;;;;;;2.65;1.45;;;;;;;;;;6038680;23;20007;-89
2023/01/06 03:07:25;;;;;;;3.47;1.50;;;;;;;;;;6015207;23;20003;-90
2023/01/06 03:09:58;;;;;;;2.63;1.17;;;;;;;;;;6014336;23;20313;-90
2023/01/06 03:13:40;;;;;;;2.42;1.38;;;;;;;;;;6015701;23;20451;-91
2023/01/06 03:16:21;;;;;;;3.53;1.20;;;;;;;;;;5957668;24;20345;-90
2023/01/06 03:19:20;;;;;;;2.50;1.58;;;;;;;;;;6006627;23;20333;-90
2023/01/06 03:21:56;;;;;;;3.38;1.45;;;;;;;;;;6035709;23;20411;-91
2023/01/06 03:24:29;;;;;;;2.17;1.15;;;;;;;;;;5991296;23;20007;-90
2023/01/06 03:27:07;;;;;;;3.95;1.63;;;;;;;;;;6039118;23;20010;-90
2023/01/06 03:29:43;;;;;;;5.15;1.63;;;;;;;;;;6017695;23;20435;-90
2023/01/06 03:32:35;;;;;;;3.33;1.38;;;;;;;;;;5992966;23;20027;-90
2023/01/06 03:35:24;;;;;;;3.00;1.42;;;;;;;;;;6040162;23;20007;-90
2023/01/06 03:38:50;;;;;;;2.75;1.35;;;;;;;;;;6039005;23;20059;-90
2023/01/06 03:44:49;;;;;;;2.33;0.90;;;;;;;;;;5928536;24;20354;-90
2023/01/06 03:47:41;;;;;;;3.25;1.35;;;;;;;;;;6012968;23;20355;-90
2023/01/06 03:50:36;;;;;;;2.63;1.00;;;;;;;;;;6039967;23;20015;-89
2023/01/06 03:53:40;;;;;;;2.72;1.17;;;;;;;;;;6038652;23;20715;-91
2023/01/06 03:59:22;;;;;;;2.60;1.20;;;;;;;;;;6020745;23;20047;-91
2023/01/06 04:01:57;;;;;;;2.13;1.08;;;;;;;;;;6015942;23;20014;-90
2023/01/06 04:04:41;;;;;;;2.60;1.38;;;;;;;;;;6039479;23;20030;-90
2023/01/06 04:07:15;;;;;;;2.17;1.00;;;;;;;;;;6016977;23;20010;-90
2023/01/06 04:09:54;;;;;;;1.77;1.00;;;;;;;;;;6017309;23;20003;-90
2023/01/06 04:12:40;;;;;;;2.17;0.75;;;;;;;;;;5993444;23;20023;-90
2023/01/06 04:15:34;;;;;;;2.10;0.93;;;;;;;;;;6021290;23;20022;-90
2023/01/06 04:18:11;;;;;;;2.40;0.98;;;;;;;;;;5993632;23;20049;-90
2023/01/06 04:20:51;;;;;;;1.85;0.88;;;;;;;;;;6016574;23;20031;-89
2023/01/06 04:23:44;;;;;;;3.40;1.15;;;;;;;;;;6018328;23;20066;-90
2023/01/06 04:26:43;;;;;;;2.17;0.80;;;;;;;;;;6039621;23;20058;-90
2023/01/06 04:29:53;;;;;;;2.22;0.77;;;;;;;;;;6039936;23;20078;-89
2023/01/06 04:32:39;;;;;;;2.60;0.95;;;;;;;;;;6039756;23;20410;-91
2023/01/06 04:35:18;;;;;;;2.33;0.80;;;;;;;;;;6016245;23;20007;-89
2023/01/06 04:38:02;;;;;;;2.35;0.70;;;;;;;;;;6016739;23;20014;-91
2023/01/06 04:40:34;;;;;;;2.92;1.00;;;;;;;;;;6062768;23;20003;-90
2023/01/06 04:43:14;;;;;;;1.80;0.90;;;;;;;;;;6016511;23;20035;-90
2023/01/06 04:45:59;;;;;;;2.65;0.77;;;;;;;;;;6017041;23;20066;-90
2023/01/06 04:48:38;;;;;;;1.88;0.80;;;;;;;;;;6061515;23;20008;-90
2023/01/06 04:51:17;;;;;;;2.45;0.70;;;;;;;;;;6037682;23;20151;-90
2023/01/06 04:53:51;;;;;;;2.35;1.02;;;;;;;;;;6016124;23;20343;-89
2023/01/06 04:56:25;;;;;;;2.42;1.02;;;;;;;;;;5993605;23;20358;-89
2023/01/06 04:59:26;;;;;;;1.55;0.55;;;;;;;;;;6039130;23;20008;-90
2023/01/06 05:01:56;;;;;;;1.65;0.75;;;;;;;;;;6015987;23;20272;-90
2023/01/06 05:04:30;;;;;;;1.85;0.63;;;;;;;;;;5992339;23;20478;-90
2023/01/06 05:07:05;;;;;;;1.65;0.70;;;;;;;;;;6017127;23;20317;-89
2023/01/06 05:09:43;;;;;;;2.20;0.77;;;;;;;;;;5993022;23;20391;-90
2023/01/06 05:12:17;;;;;;;2.35;0.68;;;;;;;;;;6037517;23;20021;-90
2023/01/06 05:14:49;;;;;;;1.77;0.70;;;;;;;;;;6015373;23;20010;-90
2023/01/06 05:17:25;;;;;;;2.53;1.10;;;;;;;;;;6015635;23;20344;-91
2023/01/06 05:19:59;;;;;;;2.42;0.77;;;;;;;;;;6038956;23;20010;-90
2023/01/06 05:22:37;;;;;;;2.13;0.57;;;;;;;;;;6015766;23;20004;-90
2023/01/06 05:25:07;;;;;;;1.45;0.60;;;;;;;;;;6038938;23;20365;-90
2023/01/06 05:27:40;;;;;;;1.80;0.70;;;;;;;;;;6015600;23;20007;-90
2023/01/06 05:30:15;;;;;;;1.83;0.73;;;;;;;;;;5992812;23;20015;-90
2023/01/06 05:32:47;;;;;;;3.35;0.80;;;;;;;;;;5992322;23;20031;-90
2023/01/06 05:35:25;;;;;;;2.22;1.02;;;;;;;;;;5992558;23;20011;-90
2023/01/06 05:37:59;;;;;;;2.38;0.70;;;;;;;;;;6038933;23;20066;-91
2023/01/06 05:40:31;;;;;;;1.30;0.50;;;;;;;;;;6038899;23;20470;-90
2023/01/06 05:43:02;;;;;;;1.50;0.70;;;;;;;;;;5992089;23;20010;-90
2023/01/06 05:45:33;;;;;;;1.17;0.50;;;;;;;;;;6015491;23;20010;-90
2023/01/06 05:48:04;;;;;;;1.40;0.65;;;;;;;;;;5992190;23;20352;-90
2023/01/06 05:50:36;;;;;;;3.33;0.57;;;;;;;;;;6015431;23;20008;-90
2023/01/06 05:53:12;;;;;;;1.65;0.65;;;;;;;;;;6014958;23;20340;-91
2023/01/06 05:55:42;;;;;;;1.25;0.50;;;;;;;;;;6037635;23;20018;-90
2023/01/06 05:58:15;;;;;;;1.38;0.57;;;;;;;;;;5992254;23;20035;-90
2023/01/06 06:00:45;;;;;;;1.83;0.70;;;;;;;;;;6015513;23;20006;-90
2023/01/06 06:03:14;;;;;;;2.28;0.50;;;;;;;;;;6015288;23;20111;-90
2023/01/06 06:05:43;;;;;;;1.80;0.45;;;;;;;;;;6015286;23;20003;-90
2023/01/06 06:08:16;;;;;;;2.47;0.63;;;;;;;;;;6015748;23;20343;-90
2023/01/06 06:10:55;;;;;;;2.08;0.73;;;;;;;;;;6015100;23;20008;-89
2023/01/06 06:13:28;;;;;;;0.77;0.38;;;;;;;;;;6015954;23;20026;-89
2023/01/06 06:16:13;;;;;;;1.05;0.40;;;;;;;;;;6015114;23;20031;-89
2023/01/06 06:18:48;;;;;;;1.00;0.40;;;;;;;;;;5992008;23;20015;-89
2023/01/06 06:21:20;;;;;;;1.35;0.55;;;;;;;;;;6038064;23;20011;-89
2023/01/06 06:23:56;;;;;;;1.20;0.50;;;;;;;;;;6015279;23;20392;-90
2023/01/06 06:26:29;;;;;;;1.65;0.63;;;;;;;;;;6014731;23;20007;-89
2023/01/06 06:28:59;;;;;;;1.30;0.50;;;;;;;;;;5991814;23;20071;-90
2023/01/06 06:31:32;;;;;;;1.77;0.77;;;;;;;;;;6014920;23;20011;-90
2023/01/06 06:34:06;;;;;;;1.88;0.60;;;;;;;;;;6015291;23;20007;-89
2023/01/06 06:36:40;;;;;;;1.27;0.43;;;;;;;;;;6014955;23;20094;-89
2023/01/06 06:39:11;;;;;;;2.38;0.60;;;;;;;;;;5992000;23;20011;-92
2023/01/06 06:41:43;;;;;;;1.38;0.70;;;;;;;;;;6014645;23;20038;-90
2023/01/06 06:44:15;;;;;;;2.15;0.50;;;;;;;;;;6014794;23;20014;-89
2023/01/06 06:46:49;;;;;;;1.35;0.43;;;;;;;;;;5991596;23;20011;-89
2023/01/06 06:49:19;;;;;;;1.25;0.50;;;;;;;;;;6015006;23;20399;-89
2023/01/06 06:51:50;;;;;;;0.93;0.35;;;;;;;;;;6014910;23;20313;-89
2023/01/06 06:54:33;;;;;;;1.23;0.50;;;;;;;;;;6014768;23;20027;-89
2023/01/06 06:57:06;;;;;;;1.45;0.70;;;;;;;;;;6036953;23;20063;-90
2023/01/06 06:59:38;;;;;;;0.85;0.38;;;;;;;;;;6014891;23;20369;-89
2023/01/06 07:02:13;;;;;;;1.30;0.57;;;;;;;;;;6014892;23;20336;-92
2023/01/06 07:04:45;;;;;;;1.38;0.45;;;;;;;;;;5991776;23;20404;-91
2023/01/06 07:07:22;;;;;;;1.10;0.47;;;;;;;;;;6014989;23;20003;-91
2023/01/06 07:09:56;;;;;;;1.15;0.50;;;;;;;;;;5992191;23;20436;-91
2023/01/06 07:12:42;;;;;;;0.93;0.20;;;;;;;;;;6014548;23;20094;-91
2023/01/06 07:16:29;;;;;;;0.63;0.25;;;;;;;;;;6039171;23;20007;-91
2023/01/06 07:23:22;;;;;;;1.25;0.50;;;;;;;;;;6030204;23;20050;-91
2023/01/06 07:26:40;;;;;;;1.48;0.45;;;;;;;;;;6074935;23;20015;-91
2023/01/06 07:29:37;;;;;;;1.63;0.28;;;;;;;;;;6059934;23;20416;-91
2023/01/06 07:35:35;;;;;;;4.18;1.15;;;;;;;;;;5974184;23;20344;-91
2023/01/06 07:38:23;;;;;;;3.92;2.10;;;;;;;;;;5986954;23;20023;-90
2023/01/06 07:41:21;;;;;;;;;;;;;;;;;;;;;
2023/01/06 09:43:49;;;;;;;10.75;2.58;;;;;;;;;;6089141;23;20023;-91
2023/01/06 15:59:21;;;;;;;9.30;5.18;;;;;;;;;;6036040;23;20016;-90
2023/01/06 16:02:58;;;;;;;;;;;;;;;;;;;;;
2023/01/06 16:06:22;;;;;;;9.02;4.97;;;;;;;;;;5956229;24;20016;-90
2023/01/06 16:10:18;;;;;;;;;;;;;;;;;;;;;
2023/01/06 16:13:42;;;;;;;7.78;4.38;;;;;;;;;;6077936;23;20400;-90
2023/01/06 16:16:57;;;;;;;8.80;3.97;;;;;;;;;;5983262;23;20019;-90
2023/01/06 16:20:30;;;;;;;;;;;;;;;;;;6095788;23;20033;-92
2023/01/06 16:35:33;;;;;;;7.53;4.63;;;;;;;;;;5958600;24;20012;-90
2023/01/06 16:39:32;;;;;;;6.63;4.28;;;;;;;;;;5980573;24;20004;-91
2023/01/06 16:43:22;;;;;;;6.65;4.00;;;;;;;;;;5931526;24;20020;-90
2023/01/06 16:58:35;;;;;;;5.72;3.30;;;;;;;;;;5887569;24;20074;-92
2023/01/06 22:44:38;;;;;;;5.30;2.83;;;;;;;;;;6009778;23;20083;-92
2023/01/06 22:53:31;;;;;;;8.77;3.63;;;;;;;;;;6093423;23;20365;-91
2023/01/06 22:56:12;;;;;;;5.50;2.95;;;;;;;;;;6030592;23;20019;-91
2023/01/06 22:58:45;;;;;;;6.32;3.45;;;;;;;;;;6002061;23;20038;-91
2023/01/06 23:01:17;;;;;;;6.32;3.17;;;;;;;;;;6023928;23;20029;-89
2023/01/06 23:03:47;;;;;;;8.35;5.30;;;;;;;;;;6024140;23;20018;-90
2023/01/06 23:06:19;;;;;;;14.35;8.25;;;;;;;;;;6001612;23;20017;-91
2023/01/06 23:08:59;;;;;;;18.98;11.00;;;;;;;;;;6047761;23;20354;-90
2023/01/06 23:22:36;;;;;;;13.60;7.40;;;;;;;;;;6093403;23;20026;-92
2023/01/06 23:29:23;;;;;;;13.77;7.65;;;;;;;;;;6036796;23;20474;-91
2023/01/06 23:36:20;;;;;;;10.60;6.07;;;;;;;;;;5988176;23;20015;-91
2023/01/06 23:40:09;;;;;;;9.90;5.75;;;;;;;;;;6014122;23;20054;-91
2023/01/06 23:47:17;;;;;;;9.95;5.95;;;;;;;;;;5982882;23;20020;-91
2023/01/06 23:51:15;;;;;;;10.52;6.00;;;;;;;;;;5970814;24;20019;-90
2023/01/06 23:58:16;;;;;;;8.48;4.80;;;;;;;;;;5982799;23;20072;-90
